الصفحة الرئيسية
METAR-TAF:

METAR-TAF

مطار :

مطار نواذيبو الدولي

نواذيبو, موريتانيا

دائرة عرض: 20-56N, خط طول: 017-02W, ارتفاع: 5 متر

مراقبة الطقس الحالي

تاريخ ووقت الإصدار 21 دقيقة قبل الساعة 18:00UTC
ريح 11 عقدة من الشمال
درجة الحرارة 23°درجة مئوية
الرطوبة 61%
ضغط 1015 hPa
الرؤية: 7000 متر

METAR: GQPP 261800Z 35011KT 7000 NSC 23/15 Q1015 NOSIG

زمن: 18:21 (18:21 UTC)

توقعات

تاريخ ووقت الإصدار 1ساعة و 21 دقيقة قبل الساعة 17:00UTC
التوقعات صالحة من26 الساعة 18 UTC إلى 27 الساعة 18 UTC
ريح 12 عقدة من الشمال/الشمال الغربي
الرؤية: 8000 متر

TAF: GQPP 261700Z 2618/2718 34012KT 8000 NSC

أرصاد الطقس والتوقعات من أكثر من 4000 مطار (تقارير الطقس للمطار METAR والتنبؤ بالطقس بالمطارTAF).

المحطات المتاحة هي النقط الصفراء والحمراء على الخريطة.

حرك المؤشر فوق النقطة لمعرفة اسم المحطة.

ثم انقر لمعرفة أرصاد وتوقعات الطقس.

لتغيير الخارطة: اضغط على الأزرار الخضراء مع رمز الصليب الأسود للتكبير. على الزر الأخضر مع شرطة للتصغير، أو على الأسهم الخضراء للخرائط المجاورة.


METAR-TAF: